createdAt,value
2023-05-09T00:01:49.328Z,4.97
2023-05-09T00:04:43.669Z,4.20
2023-05-09T00:07:37.990Z,4.18
2023-05-09T00:10:32.271Z,4.72
2023-05-09T00:13:27.071Z,6.32
2023-05-09T00:16:21.850Z,4.28
2023-05-09T00:19:16.089Z,5.20
2023-05-09T00:22:10.564Z,6.07
2023-05-09T00:25:05.585Z,6.05
2023-05-09T00:27:59.920Z,6.03
2023-05-09T00:30:54.106Z,8.05
2023-05-09T00:33:48.543Z,8.95
2023-05-09T00:36:43.338Z,9.18
2023-05-09T00:39:37.892Z,15.70
2023-05-09T00:42:32.328Z,13.88
2023-05-09T00:45:27.050Z,12.38
2023-05-09T00:48:21.453Z,10.15
2023-05-09T00:51:15.882Z,10.43
2023-05-09T00:54:11.382Z,9.38
2023-05-09T00:57:05.694Z,8.57
2023-05-09T00:59:59.950Z,9.30
2023-05-09T01:02:57.253Z,8.18
2023-05-09T01:06:04.611Z,7.40
2023-05-09T01:09:29.209Z,9.52
2023-05-09T01:12:41.894Z,9.63
2023-05-09T01:15:43.064Z,7.80
2023-05-09T01:19:01.941Z,6.13
2023-05-09T01:21:58.479Z,6.05
2023-05-09T01:25:29.630Z,4.35
2023-05-09T01:28:40.656Z,6.72
2023-05-09T01:31:39.901Z,5.50
2023-05-09T01:34:36.320Z,5.40
2023-05-09T01:37:39.480Z,5.97
2023-05-09T01:40:34.966Z,6.55
2023-05-09T01:43:31.806Z,8.82
2023-05-09T01:46:29.086Z,5.03
2023-05-09T01:52:20.583Z,6.82
2023-05-09T01:55:16.324Z,8.88
2023-05-09T01:58:11.386Z,5.25
2023-05-09T02:01:06.234Z,7.40
2023-05-09T02:04:01.546Z,4.28
2023-05-09T02:06:55.958Z,5.63
2023-05-09T02:09:51.666Z,5.38
2023-05-09T02:12:46.030Z,7.55
2023-05-09T02:15:40.510Z,6.18
2023-05-09T02:18:35.367Z,7.93
2023-05-09T02:21:29.744Z,7.80
2023-05-09T02:24:23.998Z,7.93
2023-05-09T02:27:18.668Z,5.40
2023-05-09T02:30:24.494Z,8.18
2023-05-09T02:33:19.624Z,5.68
2023-05-09T02:36:14.627Z,6.32
2023-05-09T02:39:09.078Z,4.95
2023-05-09T02:42:11.955Z,5.55
2023-05-09T02:45:10.417Z,5.57
2023-05-09T02:48:06.888Z,5.45
2023-05-09T02:51:02.577Z,7.28
2023-05-09T02:53:57.022Z,6.30
2023-05-09T02:56:51.198Z,7.50
2023-05-09T02:59:45.439Z,6.20
2023-05-09T03:02:40.210Z,7.60
2023-05-09T03:05:34.380Z,7.63
2023-05-09T03:08:28.598Z,6.65
2023-05-09T03:11:23.145Z,7.15
2023-05-09T03:14:17.358Z,6.43
2023-05-09T03:17:11.875Z,7.43
2023-05-09T03:20:07.014Z,8.35
2023-05-09T03:23:01.143Z,6.22
2023-05-09T03:25:55.381Z,6.25
2023-05-09T03:28:50.176Z,5.13
2023-05-09T03:31:44.434Z,6.90
2023-05-09T03:34:38.578Z,4.63
2023-05-09T03:37:32.710Z,4.13
2023-05-09T03:40:26.902Z,5.97
2023-05-09T03:43:21.262Z,3.00
2023-05-09T03:46:15.406Z,5.53
2023-05-09T03:49:09.619Z,5.43
2023-05-09T03:52:04.673Z,4.13
2023-05-09T03:54:58.831Z,3.92
2023-05-09T03:57:53.156Z,2.50
2023-05-09T04:00:47.591Z,3.40
2023-05-09T04:03:42.506Z,2.97
2023-05-09T04:06:37.346Z,2.85
2023-05-09T04:09:32.514Z,2.03
2023-05-09T04:12:27.397Z,2.13
2023-05-09T04:15:21.491Z,2.22
2023-05-09T04:18:15.724Z,2.45
2023-05-09T04:21:10.112Z,2.95
2023-05-09T04:24:04.395Z,2.25
2023-05-09T04:26:59.203Z,3.60
2023-05-09T04:29:54.730Z,2.63
2023-05-09T04:32:50.175Z,2.67
2023-05-09T04:35:44.413Z,1.45
2023-05-09T04:38:38.598Z,5.00
2023-05-09T04:41:33.090Z,5.10
2023-05-09T04:44:27.978Z,1.35
2023-05-09T04:47:22.287Z,1.75
2023-05-09T04:50:17.703Z,1.60
2023-05-09T04:53:12.267Z,0.98
2023-05-09T04:56:06.550Z,1.48
2023-05-09T04:59:00.779Z,1.98
2023-05-09T05:01:55.126Z,2.65
2023-05-09T05:04:49.905Z,1.52
2023-05-09T05:07:44.145Z,2.05
2023-05-09T05:10:38.343Z,1.45
2023-05-09T05:13:32.553Z,0.77
2023-05-09T05:16:26.867Z,0.98
2023-05-09T05:19:21.164Z,2.47
2023-05-09T05:22:15.351Z,1.88
2023-05-09T05:25:10.108Z,1.08
2023-05-09T05:28:04.560Z,1.63
2023-05-09T05:30:58.721Z,0.70
2023-05-09T05:33:53.044Z,2.38
2023-05-09T05:36:47.688Z,2.95
2023-05-09T05:39:41.858Z,4.80
2023-05-09T05:42:36.199Z,1.42
2023-05-09T05:45:31.530Z,3.45
2023-05-09T05:48:25.710Z,1.17
2023-05-09T05:51:20.112Z,1.20
2023-05-09T05:54:14.269Z,5.20
2023-05-09T05:57:09.444Z,4.03
2023-05-09T06:00:06.943Z,0.77
2023-05-09T06:03:01.306Z,1.25
2023-05-09T06:05:55.553Z,1.58
2023-05-09T06:08:52.865Z,2.03
2023-05-09T06:14:40.759Z,3.35
2023-05-09T06:17:35.813Z,0.80
2023-05-09T06:20:30.097Z,1.42
2023-05-09T06:23:24.416Z,2.15
2023-05-09T06:26:18.815Z,3.10
2023-05-09T06:29:13.026Z,0.50
2023-05-09T06:32:07.427Z,0.52
2023-05-09T06:35:01.645Z,1.10
2023-05-09T06:37:57.356Z,0.45
2023-05-09T06:40:51.599Z,0.85
2023-05-09T06:43:45.856Z,0.73
2023-05-09T06:46:40.056Z,1.40
2023-05-09T06:49:34.336Z,1.90
2023-05-09T06:52:28.505Z,1.15
2023-05-09T06:55:22.935Z,1.23
2023-05-09T06:58:17.189Z,0.60
2023-05-09T07:01:11.524Z,1.15
2023-05-09T07:04:05.771Z,2.22
2023-05-09T07:07:01.688Z,0.88
2023-05-09T07:10:07.321Z,2.33
2023-05-09T07:13:05.224Z,0.70
2023-05-09T07:15:59.501Z,1.75
2023-05-09T07:18:53.722Z,1.33
2023-05-09T07:21:47.920Z,1.30
2023-05-09T07:24:42.186Z,1.30
2023-05-09T07:27:36.855Z,2.30
2023-05-09T07:30:30.996Z,2.05
2023-05-09T07:33:25.411Z,1.10
2023-05-09T07:36:19.689Z,1.60
2023-05-09T07:39:13.895Z,2.45
2023-05-09T07:42:09.588Z,3.63
2023-05-09T07:45:05.667Z,2.40
2023-05-09T07:47:59.971Z,5.75
2023-05-09T07:50:54.277Z,6.30
2023-05-09T07:53:48.455Z,3.50
2023-05-09T07:56:42.594Z,2.80
2023-05-09T07:59:37.022Z,2.08
2023-05-09T08:02:31.323Z,1.38
2023-05-09T08:05:25.546Z,1.98
2023-05-09T08:08:19.748Z,1.27
2023-05-09T08:11:13.978Z,1.60
2023-05-09T08:14:08.090Z,0.80
2023-05-09T08:17:02.480Z,2.22
2023-05-09T08:19:56.747Z,1.17
2023-05-09T08:22:50.933Z,1.77
2023-05-09T08:25:45.168Z,1.85
2023-05-09T08:28:39.435Z,1.98
2023-05-09T08:31:33.656Z,2.00
2023-05-09T08:34:28.316Z,2.65
2023-05-09T08:37:22.458Z,1.83
2023-05-09T08:40:17.641Z,3.40
2023-05-09T08:43:13.381Z,3.15
2023-05-09T08:46:13.439Z,1.38
2023-05-09T08:49:09.637Z,2.53
2023-05-09T08:52:04.224Z,2.05
2023-05-09T08:54:59.075Z,2.92
2023-05-09T08:57:54.639Z,3.75
2023-05-09T09:00:51.716Z,1.70
2023-05-09T09:03:49.015Z,2.38
2023-05-09T09:09:38.926Z,2.38
2023-05-09T09:12:34.673Z,1.92
2023-05-09T09:15:32.157Z,3.00
2023-05-09T09:18:31.991Z,3.40
2023-05-09T09:21:26.335Z,2.28
2023-05-09T09:24:24.822Z,1.92
2023-05-09T09:27:20.110Z,2.35
2023-05-09T09:30:15.122Z,2.08
2023-05-09T09:33:09.700Z,3.50
2023-05-09T09:36:04.023Z,1.60
2023-05-09T09:39:02.656Z,3.05
2023-05-09T09:41:57.077Z,2.35
2023-05-09T09:45:11.043Z,2.42
2023-05-09T09:48:08.895Z,1.20
2023-05-09T09:51:13.151Z,1.27
2023-05-09T09:54:10.304Z,1.40
2023-05-09T09:57:04.609Z,1.63
2023-05-09T10:00:02.084Z,0.70
2023-05-09T10:03:00.805Z,1.30
2023-05-09T10:06:04.253Z,0.70
2023-05-09T10:08:58.669Z,0.90
2023-05-09T10:11:54.656Z,4.60
2023-05-09T10:14:50.312Z,3.88
2023-05-09T10:17:45.101Z,1.20
2023-05-09T10:20:42.568Z,1.38
2023-05-09T10:26:38.629Z,1.52
2023-05-09T10:29:40.479Z,5.47
2023-05-09T10:32:57.692Z,16.15
2023-05-09T10:35:53.714Z,10.27
2023-05-09T10:38:50.313Z,9.95
2023-05-09T10:41:44.915Z,5.05
2023-05-09T10:44:40.557Z,2.85
2023-05-09T10:47:35.121Z,0.77
2023-05-09T10:50:30.100Z,1.17
2023-05-09T10:53:25.621Z,0.45
2023-05-09T10:56:41.169Z,0.63
2023-05-09T10:59:41.290Z,0.98
2023-05-09T11:02:36.216Z,1.00
2023-05-09T11:05:41.897Z,1.35
2023-05-09T11:08:36.353Z,0.70
2023-05-09T11:11:31.887Z,0.45
2023-05-09T11:14:45.685Z,0.80
2023-05-09T11:17:43.595Z,1.15
2023-05-09T11:20:44.590Z,1.30
2023-05-09T11:23:40.644Z,1.50
2023-05-09T11:26:36.110Z,0.50
2023-05-09T11:29:30.521Z,0.75
2023-05-09T11:32:35.489Z,1.20
2023-05-09T11:35:29.963Z,1.13
2023-05-09T11:38:24.443Z,0.90
2023-05-09T11:41:18.817Z,1.08
2023-05-09T11:44:20.592Z,1.45
2023-05-09T11:47:15.373Z,1.30
2023-05-09T11:50:11.518Z,3.58
2023-05-09T11:53:05.672Z,1.05
2023-05-09T11:55:59.998Z,1.58
2023-05-09T11:58:54.432Z,4.00
2023-05-09T12:01:49.385Z,1.55
2023-05-09T12:04:43.635Z,1.25
2023-05-09T12:07:39.292Z,1.50
2023-05-09T12:10:33.978Z,2.22
2023-05-09T12:13:28.548Z,3.60
2023-05-09T12:16:23.182Z,4.18
2023-05-09T12:19:20.923Z,5.45
2023-05-09T12:22:15.056Z,2.70
2023-05-09T12:25:11.551Z,3.40
2023-05-09T12:28:06.025Z,3.83
2023-05-09T12:31:01.071Z,3.42
2023-05-09T12:33:55.467Z,3.50
2023-05-09T12:36:53.211Z,3.28
2023-05-09T12:40:02.020Z,3.05
2023-05-09T12:43:02.151Z,3.47
2023-05-09T12:45:56.347Z,2.60
2023-05-09T12:48:50.790Z,4.30
2023-05-09T12:51:51.583Z,2.08
2023-05-09T12:54:49.470Z,3.28
2023-05-09T12:57:44.186Z,3.97
2023-05-09T13:00:47.870Z,4.00
2023-05-09T13:03:42.305Z,3.33
2023-05-09T13:06:37.297Z,2.80
2023-05-09T13:09:31.500Z,4.25
2023-05-09T13:12:25.663Z,4.07
2023-05-09T13:15:22.978Z,7.97
2023-05-09T13:18:17.389Z,4.47
2023-05-09T13:21:11.565Z,5.45
2023-05-09T13:24:06.838Z,4.57
2023-05-09T13:27:01.051Z,7.55
2023-05-09T13:29:55.530Z,4.47
2023-05-09T13:32:49.851Z,3.85
2023-05-09T13:35:44.107Z,3.05
2023-05-09T13:38:41.684Z,3.70
2023-05-09T13:41:37.506Z,4.18
2023-05-09T13:44:32.419Z,3.78
2023-05-09T13:47:27.138Z,4.00
2023-05-09T13:50:21.556Z,3.35
2023-05-09T13:53:15.725Z,4.30
2023-05-09T13:56:13.237Z,4.05
2023-05-09T13:59:08.973Z,3.35
2023-05-09T14:02:03.755Z,3.83
2023-05-09T14:04:58.075Z,4.72
2023-05-09T14:07:52.334Z,3.35
2023-05-09T14:10:46.631Z,3.33
2023-05-09T14:13:40.849Z,4.65
2023-05-09T14:16:35.130Z,3.78
2023-05-09T14:19:30.003Z,3.85
2023-05-09T14:22:24.200Z,3.45
2023-05-09T14:25:18.451Z,2.60
2023-05-09T14:28:13.360Z,3.75
2023-05-09T14:31:07.682Z,3.03
2023-05-09T14:34:02.022Z,3.95
2023-05-09T14:36:56.119Z,3.22
2023-05-09T14:39:50.876Z,3.55
2023-05-09T14:42:45.509Z,3.30
2023-05-09T14:45:39.881Z,4.40
2023-05-09T14:48:37.968Z,2.85
2023-05-09T14:51:34.505Z,5.05
2023-05-09T14:54:28.828Z,4.50
2023-05-09T14:57:23.475Z,3.25
2023-05-09T15:00:21.845Z,3.33
2023-05-09T15:03:16.818Z,3.28
2023-05-09T15:06:11.742Z,4.82
2023-05-09T15:09:06.706Z,3.88
2023-05-09T15:12:00.859Z,2.30
2023-05-09T15:14:56.610Z,2.95
2023-05-09T15:17:51.190Z,3.28
2023-05-09T15:20:45.745Z,3.70
2023-05-09T15:23:40.902Z,3.20
2023-05-09T15:26:35.092Z,4.22
2023-05-09T15:29:29.269Z,4.40
2023-05-09T15:32:23.764Z,3.47
2023-05-09T15:35:19.520Z,4.50
2023-05-09T15:38:14.703Z,4.60
2023-05-09T15:41:10.041Z,5.32
2023-05-09T15:44:04.321Z,6.88
2023-05-09T15:46:59.686Z,6.90
2023-05-09T15:49:54.595Z,5.20
2023-05-09T15:52:48.988Z,7.13
2023-05-09T15:55:44.858Z,6.65
2023-05-09T15:58:40.042Z,8.77
2023-05-09T16:01:35.408Z,5.75
2023-05-09T16:04:29.694Z,6.32
2023-05-09T16:07:24.704Z,7.30
2023-05-09T16:10:18.943Z,5.15
2023-05-09T16:13:13.375Z,4.75
2023-05-09T16:16:07.845Z,7.50
2023-05-09T16:19:03.644Z,6.32
2023-05-09T16:21:58.090Z,6.68
2023-05-09T16:24:52.269Z,5.70
2023-05-09T16:27:46.606Z,5.57
2023-05-09T16:30:40.804Z,6.30
2023-05-09T16:33:35.201Z,4.70
2023-05-09T16:36:31.110Z,5.18
2023-05-09T16:39:25.283Z,5.72
2023-05-09T16:42:19.428Z,4.80
2023-05-09T16:45:13.667Z,6.80
2023-05-09T16:48:08.303Z,3.35
2023-05-09T16:51:02.404Z,4.88
2023-05-09T16:53:56.615Z,3.63
2023-05-09T16:56:50.815Z,3.20
2023-05-09T16:59:45.000Z,4.28
2023-05-09T17:02:39.409Z,3.70
2023-05-09T17:05:33.650Z,3.55
2023-05-09T17:08:27.751Z,2.72
2023-05-09T17:11:22.885Z,2.58
2023-05-09T17:14:17.200Z,1.95
2023-05-09T17:17:11.578Z,1.42
2023-05-09T17:20:05.938Z,2.63
2023-05-09T17:23:00.135Z,2.90
2023-05-09T17:25:54.377Z,2.47
2023-05-09T17:28:49.126Z,2.33
2023-05-09T17:31:43.499Z,1.67
2023-05-09T17:34:39.193Z,1.60
2023-05-09T17:37:33.297Z,2.15
2023-05-09T17:40:27.589Z,1.30
2023-05-09T17:43:22.964Z,2.13
2023-05-09T17:46:17.241Z,2.17
2023-05-09T17:49:12.473Z,2.33
2023-05-09T17:52:06.754Z,1.95
2023-05-09T17:55:02.153Z,1.83
2023-05-09T17:57:56.335Z,2.40
2023-05-09T18:00:50.468Z,2.22
2023-05-09T18:03:44.718Z,2.88
2023-05-09T18:06:39.301Z,2.47
2023-05-09T18:09:33.525Z,2.72
2023-05-09T18:12:30.132Z,3.15
2023-05-09T18:15:24.402Z,1.90
2023-05-09T18:18:18.707Z,2.42
2023-05-09T18:21:13.257Z,3.42
2023-05-09T18:24:10.258Z,2.00
2023-05-09T18:27:07.210Z,1.90
2023-05-09T18:30:01.347Z,2.95
2023-05-09T18:32:55.849Z,2.30
2023-05-09T18:35:50.061Z,3.92
2023-05-09T18:38:44.819Z,2.85
2023-05-09T18:41:38.977Z,2.63
2023-05-09T18:44:33.878Z,3.47
2023-05-09T18:47:28.802Z,3.20
2023-05-09T18:50:22.987Z,3.22
2023-05-09T18:53:17.139Z,1.95
2023-05-09T18:56:11.683Z,2.60
2023-05-09T18:59:06.252Z,3.30
2023-05-09T19:02:00.423Z,1.50
2023-05-09T19:04:54.701Z,2.65
2023-05-09T19:07:49.035Z,1.90
2023-05-09T19:10:43.643Z,1.30
2023-05-09T19:13:39.597Z,1.85
2023-05-09T19:16:33.909Z,1.30
2023-05-09T19:19:28.784Z,1.30
2023-05-09T19:22:22.901Z,0.90
2023-05-09T19:25:17.522Z,0.70
2023-05-09T19:28:13.200Z,0.75
2023-05-09T19:31:07.404Z,1.42
2023-05-09T19:34:01.922Z,0.98
2023-05-09T19:36:56.536Z,0.65
2023-05-09T19:39:52.962Z,0.65
2023-05-09T19:42:47.374Z,0.87
2023-05-09T19:45:41.769Z,1.02
2023-05-09T19:48:37.076Z,0.60
2023-05-09T19:51:31.229Z,0.80
2023-05-09T19:54:28.613Z,0.65
2023-05-09T19:57:22.832Z,1.50
2023-05-09T20:00:17.709Z,0.50
2023-05-09T20:03:12.167Z,0.88
2023-05-09T20:06:07.119Z,1.08
2023-05-09T20:09:01.254Z,0.55
2023-05-09T20:11:55.439Z,1.13
2023-05-09T20:14:49.619Z,0.57
2023-05-09T20:17:43.961Z,0.80
2023-05-09T20:20:38.445Z,0.95
2023-05-09T20:23:32.720Z,0.63
2023-05-09T20:26:27.519Z,0.47
2023-05-09T20:29:21.864Z,0.45
2023-05-09T20:32:16.073Z,0.43
2023-05-09T20:35:10.694Z,0.40
2023-05-09T20:38:05.757Z,0.40
2023-05-09T20:40:59.902Z,0.40
2023-05-09T20:43:54.184Z,0.30
2023-05-09T20:46:48.952Z,0.38
2023-05-09T20:49:43.169Z,0.50
2023-05-09T20:52:37.469Z,0.30
2023-05-09T20:55:31.668Z,0.30
2023-05-09T20:58:25.784Z,0.40
2023-05-09T21:01:20.247Z,0.30
2023-05-09T21:04:14.378Z,0.40
2023-05-09T21:07:08.557Z,0.30
2023-05-09T21:10:03.161Z,0.40
2023-05-09T21:12:57.452Z,1.00
2023-05-09T21:15:55.068Z,0.45
2023-05-09T21:18:49.189Z,0.28
2023-05-09T21:21:43.453Z,0.30
2023-05-09T21:24:37.582Z,0.57
2023-05-09T21:27:35.038Z,0.40
2023-05-09T21:30:29.186Z,0.32
2023-05-09T21:33:23.500Z,0.60
2023-05-09T21:36:17.611Z,0.93
2023-05-09T21:39:12.872Z,0.75
2023-05-09T21:42:07.051Z,1.15
2023-05-09T21:45:01.264Z,1.42
2023-05-09T21:47:55.497Z,0.45
2023-05-09T21:50:49.688Z,0.70
2023-05-09T21:53:43.846Z,0.73
2023-05-09T21:56:38.100Z,0.65
2023-05-09T21:59:32.289Z,0.50
2023-05-09T22:02:26.503Z,0.32
2023-05-09T22:05:20.718Z,1.17
2023-05-09T22:08:14.888Z,0.40
2023-05-09T22:11:09.079Z,0.40
2023-05-09T22:14:03.588Z,0.57
2023-05-09T22:16:57.712Z,0.85
2023-05-09T22:19:51.904Z,1.63
2023-05-09T22:22:46.036Z,1.05
2023-05-09T22:25:40.194Z,0.63
2023-05-09T22:28:34.423Z,1.98
2023-05-09T22:31:28.708Z,1.38
2023-05-09T22:34:23.754Z,0.88
2023-05-09T22:37:18.042Z,0.90
2023-05-09T22:40:12.710Z,0.73
2023-05-09T22:43:07.149Z,0.40
2023-05-09T22:46:01.612Z,0.70
2023-05-09T22:48:55.940Z,0.40
2023-05-09T22:51:50.101Z,0.30
2023-05-09T22:54:44.309Z,0.40
2023-05-09T22:57:38.559Z,0.30
2023-05-09T23:00:32.934Z,0.40
2023-05-09T23:03:27.503Z,0.50
2023-05-09T23:06:21.877Z,0.52
2023-05-09T23:09:16.287Z,0.30
2023-05-09T23:12:13.132Z,0.20
2023-05-09T23:15:08.733Z,0.95
2023-05-09T23:18:03.050Z,0.30
2023-05-09T23:20:57.416Z,0.80
2023-05-09T23:23:51.596Z,4.10
2023-05-09T23:26:45.782Z,0.73
2023-05-09T23:29:39.921Z,0.50
2023-05-09T23:32:34.194Z,0.22
2023-05-09T23:35:28.727Z,0.30
2023-05-09T23:38:23.725Z,0.20
2023-05-09T23:41:17.954Z,0.38
2023-05-09T23:44:13.974Z,0.22
2023-05-09T23:47:08.367Z,0.43
2023-05-09T23:50:02.572Z,0.38
2023-05-09T23:52:56.981Z,0.20
2023-05-09T23:55:51.199Z,0.30
2023-05-09T23:58:45.450Z,0.40
